sensor_id;sensor_type;location;lat;lon;timestamp;pressure;altitude;pressure_sealevel;temperature;humidity
46724;BME280;32463;48.298;11.620;2023-02-11T00:00:11;98222.75;;;-4.55;100.00
46724;BME280;32463;48.298;11.620;2023-02-11T00:02:38;98221.19;;;-4.62;100.00
46724;BME280;32463;48.298;11.620;2023-02-11T00:05:05;98215.31;;;-4.65;100.00
46724;BME280;32463;48.298;11.620;2023-02-11T00:07:32;98218.66;;;-4.63;100.00
46724;BME280;32463;48.298;11.620;2023-02-11T00:09:59;98219.47;;;-4.61;100.00
46724;BME280;32463;48.298;11.620;2023-02-11T00:12:27;98226.03;;;-4.48;100.00
46724;BME280;32463;48.298;11.620;2023-02-11T00:14:53;98216.56;;;-4.34;100.00
46724;BME280;32463;48.298;11.620;2023-02-11T00:17:20;98216.22;;;-4.10;100.00
46724;BME280;32463;48.298;11.620;2023-02-11T00:19:50;98210.25;;;-4.05;100.00
46724;BME280;32463;48.298;11.620;2023-02-11T00:22:17;98216.91;;;-3.98;100.00
46724;BME280;32463;48.298;11.620;2023-02-11T00:24:44;98215.97;;;-3.94;100.00
46724;BME280;32463;48.298;11.620;2023-02-11T00:27:11;98219.47;;;-4.01;100.00
46724;BME280;32463;48.298;11.620;2023-02-11T00:29:37;98222.88;;;-4.02;100.00
46724;BME280;32463;48.298;11.620;2023-02-11T00:32:05;98219.44;;;-3.98;100.00
46724;BME280;32463;48.298;11.620;2023-02-11T00:34:34;98213.66;;;-4.08;100.00
46724;BME280;32463;48.298;11.620;2023-02-11T00:37:01;98211.41;;;-4.28;100.00
46724;BME280;32463;48.298;11.620;2023-02-11T00:39:28;98212.38;;;-4.35;100.00
46724;BME280;32463;48.298;11.620;2023-02-11T00:41:54;98201.44;;;-4.37;100.00
46724;BME280;32463;48.298;11.620;2023-02-11T00:44:20;98206.56;;;-4.43;100.00
46724;BME280;32463;48.298;11.620;2023-02-11T00:46:47;98200.72;;;-4.48;100.00
46724;BME280;32463;48.298;11.620;2023-02-11T00:49:13;98199.84;;;-4.44;100.00
46724;BME280;32463;48.298;11.620;2023-02-11T00:51:40;98212.53;;;-4.47;100.00
46724;BME280;32463;48.298;11.620;2023-02-11T00:54:07;98197.59;;;-4.65;100.00
46724;BME280;32463;48.298;11.620;2023-02-11T00:56:33;98207.81;;;-4.73;100.00
46724;BME280;32463;48.298;11.620;2023-02-11T00:59:00;98197.88;;;-4.88;100.00
46724;BME280;32463;48.298;11.620;2023-02-11T01:01:26;98203.84;;;-4.91;100.00
46724;BME280;32463;48.298;11.620;2023-02-11T01:03:53;98202.25;;;-5.01;100.00
46724;BME280;32463;48.298;11.620;2023-02-11T01:06:19;98202.28;;;-5.04;100.00
46724;BME280;32463;48.298;11.620;2023-02-11T01:08:47;98201.53;;;-5.12;100.00
46724;BME280;32463;48.298;11.620;2023-02-11T01:11:19;98204.91;;;-5.12;100.00
46724;BME280;32463;48.298;11.620;2023-02-11T01:13:47;98197.34;;;-5.13;100.00
46724;BME280;32463;48.298;11.620;2023-02-11T01:16:14;98191.53;;;-5.21;100.00
46724;BME280;32463;48.298;11.620;2023-02-11T01:18:42;98202.56;;;-5.28;100.00
46724;BME280;32463;48.298;11.620;2023-02-11T01:21:09;98201.69;;;-5.26;100.00
46724;BME280;32463;48.298;11.620;2023-02-11T01:23:36;98185.75;;;-5.32;100.00
46724;BME280;32463;48.298;11.620;2023-02-11T01:26:04;98198.38;;;-5.29;100.00
46724;BME280;32463;48.298;11.620;2023-02-11T01:28:31;98194.00;;;-5.18;100.00
46724;BME280;32463;48.298;11.620;2023-02-11T01:30:59;98193.97;;;-5.15;100.00
46724;BME280;32463;48.298;11.620;2023-02-11T01:33:27;98204.22;;;-5.24;100.00
46724;BME280;32463;48.298;11.620;2023-02-11T01:35:54;98207.44;;;-5.13;100.00
46724;BME280;32463;48.298;11.620;2023-02-11T01:38:24;98207.31;;;-5.01;100.00
46724;BME280;32463;48.298;11.620;2023-02-11T01:40:58;98201.47;;;-5.06;100.00
46724;BME280;32463;48.298;11.620;2023-02-11T01:43:26;98209.94;;;-5.10;100.00
46724;BME280;32463;48.298;11.620;2023-02-11T01:45:58;98197.34;;;-5.13;100.00
46724;BME280;32463;48.298;11.620;2023-02-11T01:48:28;98190.56;;;-5.10;100.00
46724;BME280;32463;48.298;11.620;2023-02-11T01:51:00;98196.50;;;-5.15;100.00
46724;BME280;32463;48.298;11.620;2023-02-11T01:53:28;98190.63;;;-5.17;100.00
46724;BME280;32463;48.298;11.620;2023-02-11T01:56:12;98197.41;;;-5.19;100.00
46724;BME280;32463;48.298;11.620;2023-02-11T01:59:05;98198.34;;;-5.26;100.00
46724;BME280;32463;48.298;11.620;2023-02-11T02:01:34;98185.72;;;-5.29;100.00
46724;BME280;32463;48.298;11.620;2023-02-11T02:04:03;98193.28;;;-5.28;100.00
46724;BME280;32463;48.298;11.620;2023-02-11T02:06:42;98193.28;;;-5.25;100.00
46724;BME280;32463;48.298;11.620;2023-02-11T02:09:15;98186.91;;;-4.89;100.00
46724;BME280;32463;48.298;11.620;2023-02-11T02:11:45;98178.31;;;-4.76;100.00
46724;BME280;32463;48.298;11.620;2023-02-11T02:14:12;98173.19;;;-4.69;100.00
46724;BME280;32463;48.298;11.620;2023-02-11T02:16:39;98165.41;;;-4.56;100.00
46724;BME280;32463;48.298;11.620;2023-02-11T02:22:10;98150.88;;;-4.43;100.00
46724;BME280;32463;48.298;11.620;2023-02-11T02:25:13;98150.81;;;-4.37;100.00
46724;BME280;32463;48.298;11.620;2023-02-11T02:31:08;98143.13;;;-4.31;100.00
46724;BME280;32463;48.298;11.620;2023-02-11T02:33:55;98143.88;;;-4.27;100.00
46724;BME280;32463;48.298;11.620;2023-02-11T02:39:26;98133.63;;;-4.20;100.00
46724;BME280;32463;48.298;11.620;2023-02-11T02:41:53;98123.41;;;-4.14;100.00
46724;BME280;32463;48.298;11.620;2023-02-11T02:44:21;98118.25;;;-4.08;100.00
46724;BME280;32463;48.298;11.620;2023-02-11T02:46:48;98115.69;;;-4.06;100.00
46724;BME280;32463;48.298;11.620;2023-02-11T02:49:16;98113.03;;;-3.98;100.00
46724;BME280;32463;48.298;11.620;2023-02-11T02:57:22;98105.50;;;-4.01;100.00
46724;BME280;32463;48.298;11.620;2023-02-11T03:05:18;98087.88;;;-4.08;100.00
46724;BME280;32463;48.298;11.620;2023-02-11T03:08:03;98079.50;;;-4.13;100.00
46724;BME280;32463;48.298;11.620;2023-02-11T03:10:43;98081.28;;;-4.18;100.00
46724;BME280;32463;48.298;11.620;2023-02-11T03:13:12;98074.38;;;-4.10;100.00
46724;BME280;32463;48.298;11.620;2023-02-11T03:15:43;98082.75;;;-4.04;100.00
46724;BME280;32463;48.298;11.620;2023-02-11T03:18:14;98088.69;;;-4.05;100.00
46724;BME280;32463;48.298;11.620;2023-02-11T03:20:44;98094.88;;;-4.25;100.00
46724;BME280;32463;48.298;11.620;2023-02-11T03:26:03;98100.22;;;-4.40;100.00
46724;BME280;32463;48.298;11.620;2023-02-11T03:28:48;98094.44;;;-4.48;100.00
46724;BME280;32463;48.298;11.620;2023-02-11T03:33:54;98083.31;;;-4.38;100.00
46724;BME280;32463;48.298;11.620;2023-02-11T03:39:52;98098.72;;;-4.53;100.00
46724;BME280;32463;48.298;11.620;2023-02-11T03:42:22;98096.97;;;-4.48;100.00
46724;BME280;32463;48.298;11.620;2023-02-11T03:44:56;98086.09;;;-4.55;100.00
46724;BME280;32463;48.298;11.620;2023-02-11T03:47:25;98085.22;;;-4.54;100.00
46724;BME280;32463;48.298;11.620;2023-02-11T03:49:54;98102.13;;;-4.54;100.00
46724;BME280;32463;48.298;11.620;2023-02-11T03:52:23;98100.41;;;-4.54;100.00
46724;BME280;32463;48.298;11.620;2023-02-11T03:54:55;98103.97;;;-4.64;100.00
46724;BME280;32463;48.298;11.620;2023-02-11T03:57:22;98106.63;;;-4.73;100.00
46724;BME280;32463;48.298;11.620;2023-02-11T03:59:57;98105.91;;;-4.83;100.00
46724;BME280;32463;48.298;11.620;2023-02-11T04:02:32;98111.94;;;-4.91;100.00
46724;BME280;32463;48.298;11.620;2023-02-11T04:04:59;98117.91;;;-4.97;100.00
46724;BME280;32463;48.298;11.620;2023-02-11T04:07:26;98114.66;;;-5.05;100.00
46724;BME280;32463;48.298;11.620;2023-02-11T04:09:53;98125.41;;;-4.89;100.00
46724;BME280;32463;48.298;11.620;2023-02-11T04:12:20;98117.72;;;-4.85;100.00
46724;BME280;32463;48.298;11.620;2023-02-11T04:14:46;98117.72;;;-4.85;100.00
46724;BME280;32463;48.298;11.620;2023-02-11T04:17:13;98124.56;;;-4.90;100.00
46724;BME280;32463;48.298;11.620;2023-02-11T04:19:39;98104.28;;;-4.87;100.00
46724;BME280;32463;48.298;11.620;2023-02-11T04:22:06;98110.91;;;-4.80;100.00
46724;BME280;32463;48.298;11.620;2023-02-11T04:24:32;98118.28;;;-4.61;100.00
46724;BME280;32463;48.298;11.620;2023-02-11T04:26:59;98125.78;;;-4.58;100.00
46724;BME280;32463;48.298;11.620;2023-02-11T04:29:26;98132.56;;;-4.59;100.00
46724;BME280;32463;48.298;11.620;2023-02-11T04:31:54;98147.78;;;-4.60;100.00
46724;BME280;32463;48.298;11.620;2023-02-11T04:34:24;98151.25;;;-4.67;100.00
46724;BME280;32463;48.298;11.620;2023-02-11T04:36:50;98154.63;;;-4.68;100.00
46724;BME280;32463;48.298;11.620;2023-02-11T04:39:17;98151.19;;;-4.64;100.00
46724;BME280;32463;48.298;11.620;2023-02-11T04:41:44;98156.03;;;-4.49;100.00
46724;BME280;32463;48.298;11.620;2023-02-11T04:44:10;98153.53;;;-4.52;100.00
46724;BME280;32463;48.298;11.620;2023-02-11T04:46:37;98144.47;;;-4.65;100.00
46724;BME280;32463;48.298;11.620;2023-02-11T04:49:03;98151.19;;;-4.64;100.00
46724;BME280;32463;48.298;11.620;2023-02-11T04:51:30;98151.09;;;-4.58;100.00
46724;BME280;32463;48.298;11.620;2023-02-11T04:53:57;98154.44;;;-4.56;100.00
46724;BME280;32463;48.298;11.620;2023-02-11T04:56:23;98138.34;;;-4.51;100.00
46724;BME280;32463;48.298;11.620;2023-02-11T04:58:50;98133.97;;;-4.41;100.00
46724;BME280;32463;48.298;11.620;2023-02-11T05:01:16;98136.94;;;-4.15;100.00
46724;BME280;32463;48.298;11.620;2023-02-11T05:03:43;98126.75;;;-4.10;100.00
46724;BME280;32463;48.298;11.620;2023-02-11T05:06:10;98137.47;;;-3.96;100.00
46724;BME280;32463;48.298;11.620;2023-02-11T05:08:38;98135.63;;;-3.86;100.00
46724;BME280;32463;48.298;11.620;2023-02-11T05:11:04;98129.63;;;-3.82;100.00
46724;BME280;32463;48.298;11.620;2023-02-11T05:13:31;98122.78;;;-3.77;100.00
46724;BME280;32463;48.298;11.620;2023-02-11T05:15:57;98128.56;;;-3.69;100.00
46724;BME280;32463;48.298;11.620;2023-02-11T05:18:24;98110.75;;;-3.66;100.00
46724;BME280;32463;48.298;11.620;2023-02-11T05:20:50;98110.56;;;-3.55;100.00
46724;BME280;32463;48.298;11.620;2023-02-11T05:23:16;98102.91;;;-3.52;100.00
46724;BME280;32463;48.298;11.620;2023-02-11T05:25:43;98092.66;;;-3.46;100.00
46724;BME280;32463;48.298;11.620;2023-02-11T05:28:09;98096.75;;;-3.41;100.00
46724;BME280;32463;48.298;11.620;2023-02-11T05:30:36;98092.25;;;-3.28;100.00
46724;BME280;32463;48.298;11.620;2023-02-11T05:33:02;98098.16;;;-3.27;100.00
46724;BME280;32463;48.298;11.620;2023-02-11T05:35:28;98092.88;;;-3.15;100.00
46724;BME280;32463;48.298;11.620;2023-02-11T05:37:55;98088.50;;;-3.09;100.00
46724;BME280;32463;48.298;11.620;2023-02-11T05:40:21;98096.69;;;-2.97;100.00
46724;BME280;32463;48.298;11.620;2023-02-11T05:42:48;98094.94;;;-2.94;100.00
46724;BME280;32463;48.298;11.620;2023-02-11T05:45:14;98092.28;;;-2.88;100.00
46724;BME280;32463;48.298;11.620;2023-02-11T05:47:41;98088.00;;;-2.86;100.00
46724;BME280;32463;48.298;11.620;2023-02-11T05:50:07;98099.69;;;-2.79;100.00
46724;BME280;32463;48.298;11.620;2023-02-11T05:52:34;98095.25;;;-2.71;100.00
46724;BME280;32463;48.298;11.620;2023-02-11T05:55:00;98089.38;;;-2.73;100.00
46724;BME280;32463;48.298;11.620;2023-02-11T05:57:27;98096.88;;;-2.66;100.00
46724;BME280;32463;48.298;11.620;2023-02-11T05:59:53;98084.97;;;-2.64;100.00
46724;BME280;32463;48.298;11.620;2023-02-11T06:02:19;98095.94;;;-2.62;100.00
46724;BME280;32463;48.298;11.620;2023-02-11T06:04:46;98105.22;;;-2.61;100.00
46724;BME280;32463;48.298;11.620;2023-02-11T06:07:12;98103.50;;;-2.61;100.00
46724;BME280;32463;48.298;11.620;2023-02-11T06:09:39;98095.13;;;-2.64;100.00
46724;BME280;32463;48.298;11.620;2023-02-11T06:12:06;98101.75;;;-2.57;100.00
46724;BME280;32463;48.298;11.620;2023-02-11T06:14:33;98121.19;;;-2.56;100.00
46724;BME280;32463;48.298;11.620;2023-02-11T06:17:00;98101.75;;;-2.57;100.00
46724;BME280;32463;48.298;11.620;2023-02-11T06:19:26;98100.88;;;-2.56;100.00
46724;BME280;32463;48.298;11.620;2023-02-11T06:21:54;98127.75;;;-2.46;100.00
46724;BME280;32463;48.298;11.620;2023-02-11T06:24:22;98115.88;;;-2.46;100.00
46724;BME280;32463;48.298;11.620;2023-02-11T06:26:49;98096.47;;;-2.48;100.00
46724;BME280;32463;48.298;11.620;2023-02-11T06:29:16;98086.25;;;-2.45;100.00
46724;BME280;32463;48.298;11.620;2023-02-11T06:31:43;98091.16;;;-2.39;100.00
46724;BME280;32463;48.298;11.620;2023-02-11T06:34:09;98074.25;;;-2.40;100.00
46724;BME280;32463;48.298;11.620;2023-02-11T06:36:38;98083.34;;;-2.31;100.00
46724;BME280;32463;48.298;11.620;2023-02-11T06:39:05;98086.78;;;-2.34;100.00
46724;BME280;32463;48.298;11.620;2023-02-11T06:41:32;98081.66;;;-2.31;100.00
46724;BME280;32463;48.298;11.620;2023-02-11T06:43:59;98094.34;;;-2.31;100.00
46724;BME280;32463;48.298;11.620;2023-02-11T06:46:25;98096.00;;;-2.30;100.00
46724;BME280;32463;48.298;11.620;2023-02-11T06:48:52;98097.53;;;-2.23;100.00
46724;BME280;32463;48.298;11.620;2023-02-11T06:51:18;98100.81;;;-2.18;100.00
46724;BME280;32463;48.298;11.620;2023-02-11T06:53:45;98115.88;;;-2.12;100.00
46724;BME280;32463;48.298;11.620;2023-02-11T06:56:17;98112.41;;;-2.08;100.00
46724;BME280;32463;48.298;11.620;2023-02-11T06:58:45;98108.16;;;-2.07;100.00
46724;BME280;32463;48.298;11.620;2023-02-11T07:01:13;98100.50;;;-2.06;100.00
46724;BME280;32463;48.298;11.620;2023-02-11T07:03:43;98102.16;;;-2.05;100.00
46724;BME280;32463;48.298;11.620;2023-02-11T07:06:12;98114.56;;;-1.92;100.00
46724;BME280;32463;48.298;11.620;2023-02-11T07:08:39;98108.69;;;-1.94;100.00
46724;BME280;32463;48.298;11.620;2023-02-11T07:11:12;98100.13;;;-1.90;100.00
46724;BME280;32463;48.298;11.620;2023-02-11T07:13:39;98088.22;;;-1.88;100.00
46724;BME280;32463;48.298;11.620;2023-02-11T07:16:08;98086.34;;;-1.83;100.00
46724;BME280;32463;48.298;11.620;2023-02-11T07:18:35;98088.13;;;-1.85;100.00
46724;BME280;32463;48.298;11.620;2023-02-11T07:21:05;98094.97;;;-1.87;100.00
46724;BME280;32463;48.298;11.620;2023-02-11T07:23:33;98102.66;;;-1.90;100.00
46724;BME280;32463;48.298;11.620;2023-02-11T07:26:08;98103.53;;;-1.91;100.00
46724;BME280;32463;48.298;11.620;2023-02-11T07:28:37;98115.22;;;-1.84;100.00
46724;BME280;32463;48.298;11.620;2023-02-11T07:31:08;98097.00;;;-1.69;100.00
46724;BME280;32463;48.298;11.620;2023-02-11T07:33:35;98077.44;;;-1.65;100.00
46724;BME280;32463;48.298;11.620;2023-02-11T07:36:03;98060.72;;;-1.74;100.00
46724;BME280;32463;48.298;11.620;2023-02-11T07:38:32;98085.72;;;-1.59;100.00
46724;BME280;32463;48.298;11.620;2023-02-11T07:41:00;98083.78;;;-1.51;100.00
46724;BME280;32463;48.298;11.620;2023-02-11T07:43:27;98075.09;;;-1.42;100.00
46724;BME280;32463;48.298;11.620;2023-02-11T07:45:53;98066.47;;;-1.37;100.00
46724;BME280;32463;48.298;11.620;2023-02-11T07:48:20;98074.72;;;-1.28;100.00
46724;BME280;32463;48.298;11.620;2023-02-11T07:50:46;98076.19;;;-1.21;100.00
46724;BME280;32463;48.298;11.620;2023-02-11T07:53:13;98085.84;;;-1.03;100.00
46724;BME280;32463;48.298;11.620;2023-02-11T07:55:41;98087.13;;;-0.90;100.00
46724;BME280;32463;48.298;11.620;2023-02-11T07:58:10;98087.56;;;-0.76;100.00
46724;BME280;32463;48.298;11.620;2023-02-11T08:00:36;98090.56;;;-0.61;100.00
46724;BME280;32463;48.298;11.620;2023-02-11T08:03:02;98076.69;;;-0.53;100.00
46724;BME280;32463;48.298;11.620;2023-02-11T08:05:29;98076.13;;;-0.35;100.00
46724;BME280;32463;48.298;11.620;2023-02-11T08:07:55;98074.22;;;-0.29;100.00
46724;BME280;32463;48.298;11.620;2023-02-11T08:10:22;98076.34;;;-0.16;100.00
46724;BME280;32463;48.298;11.620;2023-02-11T08:12:48;98065.75;;;-0.04;100.00
46724;BME280;32463;48.298;11.620;2023-02-11T08:15:15;98066.59;;;-0.03;100.00
46724;BME280;32463;48.298;11.620;2023-02-11T08:17:41;98075.56;;;0.07;100.00
46724;BME280;32463;48.298;11.620;2023-02-11T08:20:08;98078.56;;;0.20;100.00
46724;BME280;32463;48.298;11.620;2023-02-11T08:22:35;98088.84;;;0.42;100.00
46724;BME280;32463;48.298;11.620;2023-02-11T08:25:01;98093.13;;;0.41;100.00
46724;BME280;32463;48.298;11.620;2023-02-11T08:27:28;98087.69;;;0.50;100.00
46724;BME280;32463;48.298;11.620;2023-02-11T08:29:54;98087.22;;;0.39;100.00
46724;BME280;32463;48.298;11.620;2023-02-11T08:32:21;98079.56;;;0.39;100.00
46724;BME280;32463;48.298;11.620;2023-02-11T08:34:52;98080.63;;;0.33;100.00
46724;BME280;32463;48.298;11.620;2023-02-11T08:37:19;98085.56;;;0.38;100.00
46724;BME280;32463;48.298;11.620;2023-02-11T08:39:47;98092.22;;;0.42;100.00
46724;BME280;32463;48.298;11.620;2023-02-11T08:42:13;98098.13;;;0.44;100.00
46724;BME280;32463;48.298;11.620;2023-02-11T08:44:40;98083.44;;;0.26;100.00
46724;BME280;32463;48.298;11.620;2023-02-11T08:47:07;98083.13;;;0.35;100.00
46724;BME280;32463;48.298;11.620;2023-02-11T08:49:34;98073.38;;;0.46;100.00
46724;BME280;32463;48.298;11.620;2023-02-11T08:52:00;98069.78;;;0.52;100.00
46724;BME280;32463;48.298;11.620;2023-02-11T08:54:31;98069.00;;;0.73;100.00
46724;BME280;32463;48.298;11.620;2023-02-11T08:56:57;98051.97;;;0.74;100.00
46724;BME280;32463;48.298;11.620;2023-02-11T08:59:26;98062.84;;;0.79;100.00
46724;BME280;32463;48.298;11.620;2023-02-11T09:01:53;98076.50;;;0.78;100.00
46724;BME280;32463;48.298;11.620;2023-02-11T09:04:20;98072.63;;;0.91;100.00
46724;BME280;32463;48.298;11.620;2023-02-11T09:06:47;98058.94;;;0.92;100.00
46724;BME280;32463;48.298;11.620;2023-02-11T09:09:14;98057.06;;;0.97;100.00
46724;BME280;32463;48.298;11.620;2023-02-11T09:11:43;98054.94;;;1.08;100.00
46724;BME280;32463;48.298;11.620;2023-02-11T09:14:18;98052.69;;;1.22;100.00
46724;BME280;32463;48.298;11.620;2023-02-11T09:16:45;98046.38;;;1.31;100.00
46724;BME280;32463;48.298;11.620;2023-02-11T09:19:12;98056.34;;;1.59;100.00
46724;BME280;32463;48.298;11.620;2023-02-11T09:21:40;98051.75;;;1.47;100.00
46724;BME280;32463;48.298;11.620;2023-02-11T09:24:07;98056.22;;;1.62;100.00
46724;BME280;32463;48.298;11.620;2023-02-11T09:26:35;98065.34;;;1.89;100.00
46724;BME280;32463;48.298;11.620;2023-02-11T09:29:03;98046.66;;;1.87;100.00
46724;BME280;32463;48.298;11.620;2023-02-11T09:31:31;98062.47;;;1.97;99.06
46724;BME280;32463;48.298;11.620;2023-02-11T09:34:04;98070.84;;;2.21;98.38
46724;BME280;32463;48.298;11.620;2023-02-11T09:36:33;98064.44;;;1.90;96.18
46724;BME280;32463;48.298;11.620;2023-02-11T09:39:05;98067.09;;;2.09;97.08
46724;BME280;32463;48.298;11.620;2023-02-11T09:42:17;98059.28;;;2.12;91.22
46724;BME280;32463;48.298;11.620;2023-02-11T09:44:49;98047.69;;;2.24;90.61
46724;BME280;32463;48.298;11.620;2023-02-11T09:47:23;98043.53;;;2.79;86.93
46724;BME280;32463;48.298;11.620;2023-02-11T09:50:01;98033.00;;;3.23;83.34
46724;BME280;32463;48.298;11.620;2023-02-11T09:52:53;98046.31;;;3.12;79.86
46724;BME280;32463;48.298;11.620;2023-02-11T09:57:52;98051.75;;;4.79;72.42
46724;BME280;32463;48.298;11.620;2023-02-11T10:00:22;98049.06;;;4.64;67.86
46724;BME280;32463;48.298;11.620;2023-02-11T10:02:57;98039.22;;;4.39;68.11
46724;BME280;32463;48.298;11.620;2023-02-11T10:05:30;98038.72;;;3.98;70.45
46724;BME280;32463;48.298;11.620;2023-02-11T10:08:17;98048.50;;;3.92;71.01
46724;BME280;32463;48.298;11.620;2023-02-11T10:10:53;98049.41;;;3.91;69.93
46724;BME280;32463;48.298;11.620;2023-02-11T10:18:48;98048.66;;;3.17;75.76
46724;BME280;32463;48.298;11.620;2023-02-11T10:23:59;98068.22;;;4.42;71.59
46724;BME280;32463;48.298;11.620;2023-02-11T10:26:29;98058.66;;;4.61;66.96
46724;BME280;32463;48.298;11.620;2023-02-11T10:29:00;98047.44;;;4.95;67.23
46724;BME280;32463;48.298;11.620;2023-02-11T10:31:34;98046.19;;;5.95;74.98
46724;BME280;32463;48.298;11.620;2023-02-11T10:34:10;98037.56;;;6.40;61.67
46724;BME280;32463;48.298;11.620;2023-02-11T10:36:40;98044.72;;;5.91;62.85
46724;BME280;32463;48.298;11.620;2023-02-11T10:42:01;98031.81;;;6.49;59.48
46724;BME280;32463;48.298;11.620;2023-02-11T10:46:58;98016.53;;;6.18;61.82
46724;BME280;32463;48.298;11.620;2023-02-11T10:49:38;98021.78;;;5.86;62.37
46724;BME280;32463;48.298;11.620;2023-02-11T10:52:26;98019.75;;;6.21;62.07
46724;BME280;32463;48.298;11.620;2023-02-11T10:55:17;98019.69;;;5.63;62.71
46724;BME280;32463;48.298;11.620;2023-02-11T10:58:01;98015.69;;;5.73;63.31
46724;BME280;32463;48.298;11.620;2023-02-11T11:00:39;98014.72;;;5.60;64.10
46724;BME280;32463;48.298;11.620;2023-02-11T11:03:19;97999.28;;;5.60;63.78
46724;BME280;32463;48.298;11.620;2023-02-11T11:06:04;97994.31;;;5.11;65.12
46724;BME280;32463;48.298;11.620;2023-02-11T11:08:41;97997.91;;;5.23;64.37
46724;BME280;32463;48.298;11.620;2023-02-11T11:11:20;97988.41;;;5.09;65.02
46724;BME280;32463;48.298;11.620;2023-02-11T11:16:23;97994.94;;;5.76;62.93
46724;BME280;32463;48.298;11.620;2023-02-11T11:24:17;97978.22;;;7.24;57.26
46724;BME280;32463;48.298;11.620;2023-02-11T11:26:48;97981.47;;;8.68;53.38
46724;BME280;32463;48.298;11.620;2023-02-11T11:29:19;97980.91;;;8.52;53.51
46724;BME280;32463;48.298;11.620;2023-02-11T11:31:51;97986.75;;;8.29;53.29
46724;BME280;32463;48.298;11.620;2023-02-11T11:34:29;97967.09;;;6.41;57.95
46724;BME280;32463;48.298;11.620;2023-02-11T11:36:58;97988.38;;;6.15;60.29
46724;BME280;32463;48.298;11.620;2023-02-11T11:39:29;97981.22;;;6.05;60.93
46724;BME280;32463;48.298;11.620;2023-02-11T11:42:04;97996.19;;;5.83;61.45
46724;BME280;32463;48.298;11.620;2023-02-11T11:44:32;97995.75;;;6.49;60.13
46724;BME280;32463;48.298;11.620;2023-02-11T11:49:44;97987.88;;;6.38;60.64
46724;BME280;32463;48.298;11.620;2023-02-11T11:54:59;97978.72;;;6.18;62.04
46724;BME280;32463;48.298;11.620;2023-02-11T11:57:27;97975.06;;;6.22;62.41
46724;BME280;32463;48.298;11.620;2023-02-11T11:59:56;97978.16;;;6.13;63.58
46724;BME280;32463;48.298;11.620;2023-02-11T12:02:37;97970.97;;;6.75;60.68
46724;BME280;32463;48.298;11.620;2023-02-11T12:05:24;97969.06;;;6.64;60.42
46724;BME280;32463;48.298;11.620;2023-02-11T12:36:00;97936.72;;;6.73;57.96
46724;BME280;32463;48.298;11.620;2023-02-11T12:55:21;97927.97;;;8.20;53.04
46724;BME280;32463;48.298;11.620;2023-02-11T12:57:50;97918.84;;;9.83;49.54
46724;BME280;32463;48.298;11.620;2023-02-11T13:00:42;97919.03;;;10.48;46.78
46724;BME280;32463;48.298;11.620;2023-02-11T13:03:20;97917.34;;;11.44;44.87
46724;BME280;32463;48.298;11.620;2023-02-11T13:05:51;97912.00;;;13.38;41.60
46724;BME280;32463;48.298;11.620;2023-02-11T13:08:39;97909.88;;;11.83;42.65
46724;BME280;32463;48.298;11.620;2023-02-11T13:11:08;97884.34;;;14.03;38.94
46724;BME280;32463;48.298;11.620;2023-02-11T13:13:50;97881.63;;;12.70;40.48
46724;BME280;32463;48.298;11.620;2023-02-11T13:16:39;97880.13;;;12.87;41.14
46724;BME280;32463;48.298;11.620;2023-02-11T13:21:47;97884.25;;;11.78;42.16
46724;BME280;32463;48.298;11.620;2023-02-11T13:24:21;97878.44;;;11.33;43.95
46724;BME280;32463;48.298;11.620;2023-02-11T13:26:53;97868.56;;;9.74;47.84
46724;BME280;32463;48.298;11.620;2023-02-11T13:31:55;97889.19;;;9.87;47.66
46724;BME280;32463;48.298;11.620;2023-02-11T13:37:19;97873.84;;;9.15;50.81
46724;BME280;32463;48.298;11.620;2023-02-11T13:39:55;97868.16;;;9.10;51.78
46724;BME280;32463;48.298;11.620;2023-02-11T13:42:22;97880.53;;;9.53;49.78
46724;BME280;32463;48.298;11.620;2023-02-11T13:44:49;97883.69;;;9.45;50.18
46724;BME280;32463;48.298;11.620;2023-02-11T13:49:56;97882.88;;;9.44;49.96
46724;BME280;32463;48.298;11.620;2023-02-11T13:52:34;97886.28;;;10.36;49.08
46724;BME280;32463;48.298;11.620;2023-02-11T13:57:40;97884.00;;;10.09;49.14
46724;BME280;32463;48.298;11.620;2023-02-11T14:09:09;97882.09;;;8.36;52.85
46724;BME280;32463;48.298;11.620;2023-02-11T14:12:30;97887.13;;;8.50;53.83
46724;BME280;32463;48.298;11.620;2023-02-11T14:15:18;97889.34;;;8.05;54.64
46724;BME280;32463;48.298;11.620;2023-02-11T14:17:45;97882.13;;;7.72;55.83
46724;BME280;32463;48.298;11.620;2023-02-11T14:20:41;97879.97;;;7.92;56.34
46724;BME280;32463;48.298;11.620;2023-02-11T14:23:21;97880.66;;;8.06;55.77
46724;BME280;32463;48.298;11.620;2023-02-11T14:26:02;97895.22;;;7.57;57.60
46724;BME280;32463;48.298;11.620;2023-02-11T14:28:31;97897.78;;;7.31;59.25
46724;BME280;32463;48.298;11.620;2023-02-11T14:31:19;97895.69;;;7.36;59.45
46724;BME280;32463;48.298;11.620;2023-02-11T14:34:13;97894.50;;;7.55;59.16
46724;BME280;32463;48.298;11.620;2023-02-11T14:36:53;97897.38;;;7.50;59.39
46724;BME280;32463;48.298;11.620;2023-02-11T14:41:54;97893.44;;;7.44;60.89
46724;BME280;32463;48.298;11.620;2023-02-11T14:44:24;97905.22;;;7.49;60.25
46724;BME280;32463;48.298;11.620;2023-02-11T14:46:53;97903.38;;;7.51;60.60
46724;BME280;32463;48.298;11.620;2023-02-11T14:49:23;97904.44;;;7.61;61.09
46724;BME280;32463;48.298;11.620;2023-02-11T14:51:53;97907.31;;;7.56;61.15
46724;BME280;32463;48.298;11.620;2023-02-11T14:54:23;97898.66;;;7.57;62.64
46724;BME280;32463;48.298;11.620;2023-02-11T14:57:13;97902.72;;;7.34;64.66
46724;BME280;32463;48.298;11.620;2023-02-11T14:59:54;97899.19;;;7.35;65.49
46724;BME280;32463;48.298;11.620;2023-02-11T15:02:27;97900.84;;;7.36;66.08
46724;BME280;32463;48.298;11.620;2023-02-11T15:05:22;97910.19;;;7.12;68.77
46724;BME280;32463;48.298;11.620;2023-02-11T15:07:56;97908.25;;;6.89;72.20
46724;BME280;32463;48.298;11.620;2023-02-11T15:13:24;97906.84;;;6.70;74.39
46724;BME280;32463;48.298;11.620;2023-02-11T15:15:59;97902.75;;;6.81;74.65